Fortaleza, Brasil

03:16 PM BRT em 01 de Outubro de 2014 (GMT -0300)
Pinto Martins International | Change Station
CLOSE
Current Station
Aeroporto
Location: Fortaleza - Pinto Martins,
Altitude: 82 ft
Estações Meteorológicas Próximas

Elev 82 ft 3.78 °S, 38.53 °W | Updated 16 minutes ago

Scattered Clouds
Nuvens Dispersas
84 °F
Aparente 87 °F
N
16
Vento Variável Vento de Este

Hoje
Máxima -- | Mínima -- °F
--% Possibilidade de Precip.
Ontem
Máxima -- | Mínima -- °F
Precip. -- pol
5:19 AM 5:27 PM
Quarto crescente, 49% visible
Pressão 29.86 pol
Visibilidade 6.2 milhas
Nuvens Nuvens Dispersas 2000 ft
Índice de Calor 87 °F
Ponto de Orvalho 68 °F
Humidade 58%
Chuva 0.00 pol
Altura de Neve Não disponível
UV 3 em vez de 12
Pólen Não disponível
Qualidade do Ar Não disponível
Flu Activity Não disponível
METAR SBFZ 301800Z 08014KT 9999 SCT020 29/20 Q1011

More Conditions Fewer Conditions

Pressão 29.86 pol
Visibilidade 6.2 milhas
Nuvens Nuvens Dispersas 2000 ft
Índice de Calor 87 °F
Ponto de Orvalho 68 °F
Humidade 58%
Chuva 0.00 pol
Altura de Neve Não disponível
UV 3 em vez de 12
Pólen Não disponível
Qualidade do Ar Não disponível
Flu Activity Não disponível
METAR SBFZ 301800Z 08014KT 9999 SCT020 29/20 Q1011

More Conditions Fewer Conditions

10-Day Weather Forecast

Almanac

Astronomia

Oct. 01, 2014 Nascer Pôr
Hora atual 05:19 BRT 17:27 BRT
Crepúsculo civil 04:58 BRT 17:48 BRT
Crepúsculo náutico 04:34 BRT 18:12 BRT
Crepúsculo astronómico 04:10 BRT 18:36 BRT
Lua 11:12 BRT 23:49 BRT
Comprimento da luz visível 12h 49m
Duração do Dia
12h 08m
Tomorrow will be 0m 13s longer.
Quarto crescente, 49% of the Moon is Illuminated
Hoje
Quarto crescente
Out 1
Quarto crescente
Out 8
Lua cheia
Out 15
Quarto minguante
Out 23
Nova

Extremos de Hoje

Altitude na localidade Altura mais baixa na localidade

Community

WunderPhotos

Upload Photos

1,758,008 fotografias inseridas!

WunderBlogs® & News

By Dr. Jeff Masters
Director of Meteorology, Weather Underground
By Kari Strenfel
Meteorologist, Weather Underground
By Christopher C. Burt
Weather Historian, Weather Underground
October 1, 2014
October 1, 2014
October 1, 2014

Nearby

Actividade Sísmisca

Cidade Distância Mag. Hora & Data
Não há notícias de atividade sísmica recente perto de si.
Mínima magnitude apresentada é 2.5.

Temperaturas das Águas Costeiras

Local Temperatura
Não há estações a reportar dados

Estações Meteorológicas Próximas